sensor_id;sensor_type;location;lat;lon;timestamp;pressure;altitude;pressure_sealevel;temperature;humidity
10988;BME280;5547;42.672;23.230;2023-07-20T00:01:19;93067.25;;;18.32;100.00
10988;BME280;5547;42.672;23.230;2023-07-20T00:04:19;93074.19;;;18.47;100.00
10988;BME280;5547;42.672;23.230;2023-07-20T00:07:20;93054.06;;;18.58;100.00
10988;BME280;5547;42.672;23.230;2023-07-20T00:10:20;93036.13;;;18.55;100.00
10988;BME280;5547;42.672;23.230;2023-07-20T00:13:21;93037.06;;;18.66;100.00
10988;BME280;5547;42.672;23.230;2023-07-20T00:16:21;93043.06;;;19.00;100.00
10988;BME280;5547;42.672;23.230;2023-07-20T00:19:23;93044.09;;;19.03;100.00
10988;BME280;5547;42.672;23.230;2023-07-20T00:22:24;93060.44;;;19.14;100.00
10988;BME280;5547;42.672;23.230;2023-07-20T00:25:24;93070.69;;;19.25;100.00
10988;BME280;5547;42.672;23.230;2023-07-20T00:28:25;93044.66;;;19.07;100.00
10988;BME280;5547;42.672;23.230;2023-07-20T00:31:25;93045.69;;;19.09;100.00
10988;BME280;5547;42.672;23.230;2023-07-20T00:34:27;93074.50;;;19.18;100.00
10988;BME280;5547;42.672;23.230;2023-07-20T00:37:27;93050.69;;;19.17;100.00
10988;BME280;5547;42.672;23.230;2023-07-20T00:40:35;93041.56;;;18.99;100.00
10988;BME280;5547;42.672;23.230;2023-07-20T00:43:36;93075.41;;;19.15;100.00
10988;BME280;5547;42.672;23.230;2023-07-20T00:46:36;93074.38;;;18.98;100.00
10988;BME280;5547;42.672;23.230;2023-07-20T00:49:37;93066.09;;;19.01;100.00
10988;BME280;5547;42.672;23.230;2023-07-20T00:52:38;93048.81;;;18.78;100.00
10988;BME280;5547;42.672;23.230;2023-07-20T00:55:42;93038.16;;;18.60;100.00
10988;BME280;5547;42.672;23.230;2023-07-20T00:58:42;93070.16;;;18.67;100.00
10988;BME280;5547;42.672;23.230;2023-07-20T01:01:43;93052.63;;;18.47;100.00
10988;BME280;5547;42.672;23.230;2023-07-20T01:04:43;93049.44;;;18.34;100.00
10988;BME280;5547;42.672;23.230;2023-07-20T01:07:58;92994.19;;;17.76;100.00
10988;BME280;5547;42.672;23.230;2023-07-20T01:11:08;93064.44;;;18.02;100.00
10988;BME280;5547;42.672;23.230;2023-07-20T01:14:11;93041.69;;;17.79;100.00
10988;BME280;5547;42.672;23.230;2023-07-20T01:17:12;93029.66;;;17.65;100.00
10988;BME280;5547;42.672;23.230;2023-07-20T01:20:14;93041.03;;;17.60;100.00
10988;BME280;5547;42.672;23.230;2023-07-20T01:23:41;93040.59;;;17.61;100.00
10988;BME280;5547;42.672;23.230;2023-07-20T01:33:57;93049.09;;;17.27;100.00
10988;BME280;5547;42.672;23.230;2023-07-20T01:36:59;93065.53;;;17.19;100.00
10988;BME280;5547;42.672;23.230;2023-07-20T01:40:01;93059.31;;;17.04;100.00
10988;BME280;5547;42.672;23.230;2023-07-20T01:43:02;93044.13;;;16.92;100.00
10988;BME280;5547;42.672;23.230;2023-07-20T01:46:03;93053.81;;;16.89;100.00
10988;BME280;5547;42.672;23.230;2023-07-20T01:49:03;93002.50;;;16.59;100.00
10988;BME280;5547;42.672;23.230;2023-07-20T01:52:04;93038.28;;;16.84;100.00
10988;BME280;5547;42.672;23.230;2023-07-20T01:55:05;93033.09;;;16.62;100.00
10988;BME280;5547;42.672;23.230;2023-07-20T01:58:05;93037.38;;;16.78;100.00
10988;BME280;5547;42.672;23.230;2023-07-20T02:01:06;93033.97;;;16.68;100.00
10988;BME280;5547;42.672;23.230;2023-07-20T02:04:07;93040.09;;;16.59;100.00
10988;BME280;5547;42.672;23.230;2023-07-20T02:07:07;92991.94;;;16.28;100.00
10988;BME280;5547;42.672;23.230;2023-07-20T02:10:08;92994.94;;;16.30;100.00
10988;BME280;5547;42.672;23.230;2023-07-20T02:13:08;93026.38;;;16.48;100.00
10988;BME280;5547;42.672;23.230;2023-07-20T02:16:08;92983.59;;;16.08;100.00
10988;BME280;5547;42.672;23.230;2023-07-20T02:19:09;93012.53;;;16.13;100.00
10988;BME280;5547;42.672;23.230;2023-07-20T02:22:09;93031.16;;;16.26;100.00
10988;BME280;5547;42.672;23.230;2023-07-20T02:25:10;92963.44;;;15.75;100.00
10988;BME280;5547;42.672;23.230;2023-07-20T02:28:13;92997.59;;;15.93;100.00
10988;BME280;5547;42.672;23.230;2023-07-20T02:31:14;93002.66;;;15.91;100.00
10988;BME280;5547;42.672;23.230;2023-07-20T02:34:14;93023.81;;;15.99;100.00
10988;BME280;5547;42.672;23.230;2023-07-20T02:37:16;93027.28;;;15.99;100.00
10988;BME280;5547;42.672;23.230;2023-07-20T02:40:16;92988.06;;;15.74;100.00
10988;BME280;5547;42.672;23.230;2023-07-20T02:43:17;93014.44;;;15.94;100.00
10988;BME280;5547;42.672;23.230;2023-07-20T02:46:17;93006.53;;;15.90;100.00
10988;BME280;5547;42.672;23.230;2023-07-20T02:49:18;93006.06;;;15.83;100.00
10988;BME280;5547;42.672;23.230;2023-07-20T02:52:18;92951.50;;;15.49;100.00
10988;BME280;5547;42.672;23.230;2023-07-20T02:55:19;93009.81;;;15.85;100.00
10988;BME280;5547;42.672;23.230;2023-07-20T02:58:19;92990.28;;;15.75;100.00
10988;BME280;5547;42.672;23.230;2023-07-20T03:01:19;93006.84;;;15.83;100.00
10988;BME280;5547;42.672;23.230;2023-07-20T03:04:20;93002.34;;;15.80;100.00
10988;BME280;5547;42.672;23.230;2023-07-20T03:07:20;92943.72;;;15.32;100.00
10988;BME280;5547;42.672;23.230;2023-07-20T03:10:21;92932.06;;;15.17;100.00
10988;BME280;5547;42.672;23.230;2023-07-20T03:13:21;93003.75;;;15.53;100.00
10988;BME280;5547;42.672;23.230;2023-07-20T03:16:23;93010.66;;;15.73;100.00
10988;BME280;5547;42.672;23.230;2023-07-20T03:19:25;93015.41;;;15.69;100.00
10988;BME280;5547;42.672;23.230;2023-07-20T03:22:25;92942.97;;;15.32;100.00
10988;BME280;5547;42.672;23.230;2023-07-20T03:25:26;93018.44;;;15.80;100.00
10988;BME280;5547;42.672;23.230;2023-07-20T03:28:26;93013.69;;;15.84;100.00
10988;BME280;5547;42.672;23.230;2023-07-20T03:31:27;93025.94;;;15.94;100.00
10988;BME280;5547;42.672;23.230;2023-07-20T03:34:27;92966.41;;;15.68;100.00
10988;BME280;5547;42.672;23.230;2023-07-20T03:37:27;93026.38;;;16.11;100.00
10988;BME280;5547;42.672;23.230;2023-07-20T03:40:28;93020.84;;;16.24;100.00
10988;BME280;5547;42.672;23.230;2023-07-20T03:43:28;93012.81;;;16.33;100.00
10988;BME280;5547;42.672;23.230;2023-07-20T03:46:29;92998.66;;;16.33;100.00
10988;BME280;5547;42.672;23.230;2023-07-20T03:49:29;93025.94;;;16.59;100.00
10988;BME280;5547;42.672;23.230;2023-07-20T03:52:30;93020.56;;;16.68;100.00
10988;BME280;5547;42.672;23.230;2023-07-20T03:55:30;92997.88;;;16.69;100.00
10988;BME280;5547;42.672;23.230;2023-07-20T03:58:31;93039.28;;;17.05;100.00
10988;BME280;5547;42.672;23.230;2023-07-20T04:01:31;93041.16;;;17.32;100.00
10988;BME280;5547;42.672;23.230;2023-07-20T04:04:36;93015.09;;;17.48;100.00
10988;BME280;5547;42.672;23.230;2023-07-20T04:07:37;92994.75;;;17.56;100.00
10988;BME280;5547;42.672;23.230;2023-07-20T04:10:38;92998.97;;;17.81;100.00
10988;BME280;5547;42.672;23.230;2023-07-20T04:13:38;93010.03;;;18.07;100.00
10988;BME280;5547;42.672;23.230;2023-07-20T04:16:39;93017.06;;;18.43;100.00
10988;BME280;5547;42.672;23.230;2023-07-20T04:19:39;92952.38;;;18.14;100.00
10988;BME280;5547;42.672;23.230;2023-07-20T04:22:39;93022.91;;;18.81;100.00
10988;BME280;5547;42.672;23.230;2023-07-20T04:25:40;93003.19;;;18.75;100.00
10988;BME280;5547;42.672;23.230;2023-07-20T04:28:41;93015.84;;;18.98;100.00
10988;BME280;5547;42.672;23.230;2023-07-20T04:31:44;93029.03;;;19.11;100.00
10988;BME280;5547;42.672;23.230;2023-07-20T04:34:45;93015.56;;;19.11;100.00
10988;BME280;5547;42.672;23.230;2023-07-20T04:37:45;93016.66;;;19.19;100.00
10988;BME280;5547;42.672;23.230;2023-07-20T04:40:48;92999.22;;;19.50;100.00
10988;BME280;5547;42.672;23.230;2023-07-20T04:43:48;92918.38;;;19.00;100.00
10988;BME280;5547;42.672;23.230;2023-07-20T04:46:49;92985.25;;;19.66;100.00
10988;BME280;5547;42.672;23.230;2023-07-20T04:49:50;93022.00;;;20.20;100.00
10988;BME280;5547;42.672;23.230;2023-07-20T04:52:50;93020.63;;;20.30;100.00
10988;BME280;5547;42.672;23.230;2023-07-20T04:55:51;93003.44;;;20.27;100.00
10988;BME280;5547;42.672;23.230;2023-07-20T04:58:52;93012.59;;;20.35;100.00
10988;BME280;5547;42.672;23.230;2023-07-20T05:01:52;93024.66;;;20.40;100.00
10988;BME280;5547;42.672;23.230;2023-07-20T05:04:53;93020.34;;;20.69;100.00
10988;BME280;5547;42.672;23.230;2023-07-20T05:07:53;92992.88;;;20.50;100.00
10988;BME280;5547;42.672;23.230;2023-07-20T05:10:54;93021.31;;;20.92;100.00
10988;BME280;5547;42.672;23.230;2023-07-20T05:13:54;93031.47;;;21.34;100.00
10988;BME280;5547;42.672;23.230;2023-07-20T05:16:55;93032.63;;;21.22;100.00
10988;BME280;5547;42.672;23.230;2023-07-20T05:19:55;92970.38;;;20.85;100.00
10988;BME280;5547;42.672;23.230;2023-07-20T05:22:55;92983.88;;;20.59;100.00
10988;BME280;5547;42.672;23.230;2023-07-20T05:25:57;93042.41;;;21.46;100.00
10988;BME280;5547;42.672;23.230;2023-07-20T05:28:57;93044.75;;;21.64;100.00
10988;BME280;5547;42.672;23.230;2023-07-20T05:31:58;93050.53;;;21.77;100.00
10988;BME280;5547;42.672;23.230;2023-07-20T05:34:58;93009.50;;;21.53;100.00
10988;BME280;5547;42.672;23.230;2023-07-20T05:37:59;93056.00;;;21.89;100.00
10988;BME280;5547;42.672;23.230;2023-07-20T05:41:00;93065.75;;;22.18;100.00
10988;BME280;5547;42.672;23.230;2023-07-20T05:44:03;93071.34;;;22.03;100.00
10988;BME280;5547;42.672;23.230;2023-07-20T05:47:04;93049.41;;;22.44;100.00
10988;BME280;5547;42.672;23.230;2023-07-20T05:50:05;93035.03;;;22.27;100.00
10988;BME280;5547;42.672;23.230;2023-07-20T05:53:07;93072.13;;;22.63;100.00
10988;BME280;5547;42.672;23.230;2023-07-20T05:56:07;93032.50;;;22.77;100.00
10988;BME280;5547;42.672;23.230;2023-07-20T05:59:10;93065.06;;;22.83;100.00
10988;BME280;5547;42.672;23.230;2023-07-20T06:02:11;93064.63;;;23.13;100.00
10988;BME280;5547;42.672;23.230;2023-07-20T06:05:12;93033.00;;;22.81;100.00
10988;BME280;5547;42.672;23.230;2023-07-20T06:08:12;93065.16;;;23.22;100.00
10988;BME280;5547;42.672;23.230;2023-07-20T06:11:13;93064.66;;;23.30;100.00
10988;BME280;5547;42.672;23.230;2023-07-20T06:14:13;93070.06;;;23.24;100.00
10988;BME280;5547;42.672;23.230;2023-07-20T06:17:13;93038.75;;;23.23;100.00
10988;BME280;5547;42.672;23.230;2023-07-20T06:20:14;93055.53;;;23.61;100.00
10988;BME280;5547;42.672;23.230;2023-07-20T06:23:14;93008.66;;;23.32;100.00
10988;BME280;5547;42.672;23.230;2023-07-20T06:26:15;93050.09;;;23.83;100.00
10988;BME280;5547;42.672;23.230;2023-07-20T06:29:16;93016.75;;;24.00;100.00
10988;BME280;5547;42.672;23.230;2023-07-20T06:32:16;93048.38;;;23.69;100.00
10988;BME280;5547;42.672;23.230;2023-07-20T06:35:17;93043.66;;;23.86;100.00
10988;BME280;5547;42.672;23.230;2023-07-20T06:38:18;93041.66;;;24.04;100.00
10988;BME280;5547;42.672;23.230;2023-07-20T06:41:18;92997.41;;;24.15;100.00
10988;BME280;5547;42.672;23.230;2023-07-20T06:44:19;93037.84;;;24.41;100.00
10988;BME280;5547;42.672;23.230;2023-07-20T06:47:19;93039.88;;;24.29;100.00
10988;BME280;5547;42.672;23.230;2023-07-20T06:50:19;93009.69;;;24.38;100.00
10988;BME280;5547;42.672;23.230;2023-07-20T06:53:20;93046.13;;;25.18;100.00
10988;BME280;5547;42.672;23.230;2023-07-20T06:56:20;93062.16;;;25.93;100.00
10988;BME280;5547;42.672;23.230;2023-07-20T06:59:21;93062.63;;;25.97;100.00
10988;BME280;5547;42.672;23.230;2023-07-20T07:02:21;93068.38;;;25.22;100.00
10988;BME280;5547;42.672;23.230;2023-07-20T07:05:22;93081.44;;;25.29;100.00
10988;BME280;5547;42.672;23.230;2023-07-20T07:08:22;93082.97;;;24.72;100.00
10988;BME280;5547;42.672;23.230;2023-07-20T07:11:23;93071.97;;;24.47;100.00
10988;BME280;5547;42.672;23.230;2023-07-20T07:14:23;93100.00;;;25.31;100.00
10988;BME280;5547;42.672;23.230;2023-07-20T07:17:24;93090.00;;;24.45;100.00
10988;BME280;5547;42.672;23.230;2023-07-20T07:20:24;93102.91;;;24.05;100.00
10988;BME280;5547;42.672;23.230;2023-07-20T07:23:25;93118.13;;;24.64;100.00
10988;BME280;5547;42.672;23.230;2023-07-20T07:26:25;93072.22;;;24.32;100.00
10988;BME280;5547;42.672;23.230;2023-07-20T07:29:26;93112.06;;;24.88;100.00
10988;BME280;5547;42.672;23.230;2023-07-20T07:32:27;93116.19;;;24.48;100.00
10988;BME280;5547;42.672;23.230;2023-07-20T07:35:27;93083.94;;;24.74;100.00
10988;BME280;5547;42.672;23.230;2023-07-20T07:38:27;93087.97;;;24.62;100.00
10988;BME280;5547;42.672;23.230;2023-07-20T07:41:28;93107.28;;;25.06;100.00
10988;BME280;5547;42.672;23.230;2023-07-20T07:44:28;93079.91;;;24.92;100.00
10988;BME280;5547;42.672;23.230;2023-07-20T07:47:29;93029.84;;;24.71;100.00
10988;BME280;5547;42.672;23.230;2023-07-20T07:50:30;93065.03;;;24.99;100.00
10988;BME280;5547;42.672;23.230;2023-07-20T07:53:30;93081.09;;;25.03;100.00
10988;BME280;5547;42.672;23.230;2023-07-20T07:56:30;93074.00;;;25.35;100.00
10988;BME280;5547;42.672;23.230;2023-07-20T07:59:31;93025.16;;;25.07;100.00
10988;BME280;5547;42.672;23.230;2023-07-20T08:02:36;93078.41;;;25.39;100.00
10988;BME280;5547;42.672;23.230;2023-07-20T08:05:37;93093.88;;;25.13;100.00
10988;BME280;5547;42.672;23.230;2023-07-20T08:08:37;93120.19;;;25.00;100.00
10988;BME280;5547;42.672;23.230;2023-07-20T08:11:39;93095.63;;;24.58;100.00
10988;BME280;5547;42.672;23.230;2023-07-20T08:14:39;93096.50;;;23.97;100.00
10988;BME280;5547;42.672;23.230;2023-07-20T08:17:41;93134.28;;;23.83;100.00
10988;BME280;5547;42.672;23.230;2023-07-20T08:20:45;93133.28;;;23.64;100.00
10988;BME280;5547;42.672;23.230;2023-07-20T08:23:46;93106.13;;;23.58;100.00
10988;BME280;5547;42.672;23.230;2023-07-20T08:26:47;93116.75;;;23.96;100.00
10988;BME280;5547;42.672;23.230;2023-07-20T08:29:47;93128.13;;;23.88;100.00
10988;BME280;5547;42.672;23.230;2023-07-20T08:32:48;93117.25;;;23.77;100.00
10988;BME280;5547;42.672;23.230;2023-07-20T08:35:48;93109.84;;;23.66;100.00
10988;BME280;5547;42.672;23.230;2023-07-20T08:38:49;93125.13;;;24.15;100.00
10988;BME280;5547;42.672;23.230;2023-07-20T08:41:50;93101.28;;;24.71;100.00
10988;BME280;5547;42.672;23.230;2023-07-20T08:44:52;93130.97;;;24.58;100.00
10988;BME280;5547;42.672;23.230;2023-07-20T08:47:54;93114.38;;;24.67;100.00
10988;BME280;5547;42.672;23.230;2023-07-20T08:50:55;93121.72;;;24.84;100.00
10988;BME280;5547;42.672;23.230;2023-07-20T08:53:58;93120.22;;;24.88;100.00
10988;BME280;5547;42.672;23.230;2023-07-20T08:57:03;93111.28;;;24.99;100.00
10988;BME280;5547;42.672;23.230;2023-07-20T09:00:04;93099.56;;;24.68;100.00
10988;BME280;5547;42.672;23.230;2023-07-20T09:03:05;93089.13;;;24.78;96.66
10988;BME280;5547;42.672;23.230;2023-07-20T09:06:05;93107.84;;;24.99;100.00
10988;BME280;5547;42.672;23.230;2023-07-20T09:09:06;93124.84;;;25.10;99.27
10988;BME280;5547;42.672;23.230;2023-07-20T09:12:13;93118.41;;;25.55;98.90
10988;BME280;5547;42.672;23.230;2023-07-20T09:15:14;93109.31;;;25.47;100.00
10988;BME280;5547;42.672;23.230;2023-07-20T09:18:28;93112.72;;;25.53;98.91
10988;BME280;5547;42.672;23.230;2023-07-20T09:21:29;93117.91;;;25.51;97.84
10988;BME280;5547;42.672;23.230;2023-07-20T09:24:31;93104.94;;;25.68;93.97
10988;BME280;5547;42.672;23.230;2023-07-20T09:27:39;93099.56;;;25.57;82.60
10988;BME280;5547;42.672;23.230;2023-07-20T09:30:40;93079.78;;;25.56;77.02
10988;BME280;5547;42.672;23.230;2023-07-20T09:33:40;93111.75;;;25.81;75.39
10988;BME280;5547;42.672;23.230;2023-07-20T09:36:41;93117.94;;;25.87;67.85
10988;BME280;5547;42.672;23.230;2023-07-20T09:39:45;93102.34;;;25.82;67.10
10988;BME280;5547;42.672;23.230;2023-07-20T09:42:46;93113.75;;;25.80;69.07
10988;BME280;5547;42.672;23.230;2023-07-20T09:45:47;93068.41;;;26.13;67.47
10988;BME280;5547;42.672;23.230;2023-07-20T09:48:53;93103.66;;;26.98;62.72
10988;BME280;5547;42.672;23.230;2023-07-20T09:51:55;93097.19;;;27.39;61.47
10988;BME280;5547;42.672;23.230;2023-07-20T09:54:58;93039.50;;;26.48;58.72
10988;BME280;5547;42.672;23.230;2023-07-20T09:58:00;93080.53;;;26.36;57.78
10988;BME280;5547;42.672;23.230;2023-07-20T10:01:01;93055.72;;;26.40;57.73
10988;BME280;5547;42.672;23.230;2023-07-20T10:04:03;93086.78;;;26.80;58.03
10988;BME280;5547;42.672;23.230;2023-07-20T10:07:08;93091.69;;;26.82;58.26
10988;BME280;5547;42.672;23.230;2023-07-20T10:10:16;93049.66;;;26.72;57.59
10988;BME280;5547;42.672;23.230;2023-07-20T10:13:18;93056.97;;;26.82;57.53
10988;BME280;5547;42.672;23.230;2023-07-20T10:16:28;93094.13;;;27.42;57.66
10988;BME280;5547;42.672;23.230;2023-07-20T10:19:34;93073.63;;;26.79;56.85
10988;BME280;5547;42.672;23.230;2023-07-20T10:22:40;93101.38;;;27.02;55.75
10988;BME280;5547;42.672;23.230;2023-07-20T10:25:40;93082.94;;;27.08;57.11
10988;BME280;5547;42.672;23.230;2023-07-20T10:28:45;93082.56;;;27.69;56.25
10988;BME280;5547;42.672;23.230;2023-07-20T10:31:46;93044.38;;;27.95;53.07
10988;BME280;5547;42.672;23.230;2023-07-20T10:34:53;93087.56;;;27.51;54.34
10988;BME280;5547;42.672;23.230;2023-07-20T10:38:02;93081.78;;;27.22;62.67
10988;BME280;5547;42.672;23.230;2023-07-20T10:41:03;93049.66;;;27.29;55.49
10988;BME280;5547;42.672;23.230;2023-07-20T10:44:07;92978.34;;;27.00;62.75
10988;BME280;5547;42.672;23.230;2023-07-20T10:47:11;93017.53;;;27.35;62.58
10988;BME280;5547;42.672;23.230;2023-07-20T10:50:12;93040.53;;;28.17;57.31
10988;BME280;5547;42.672;23.230;2023-07-20T10:53:17;93002.34;;;28.12;60.31
10988;BME280;5547;42.672;23.230;2023-07-20T10:56:22;93000.44;;;28.33;55.61
10988;BME280;5547;42.672;23.230;2023-07-20T11:02:24;93009.91;;;28.32;54.82
10988;BME280;5547;42.672;23.230;2023-07-20T11:05:34;93006.53;;;28.53;55.39
10988;BME280;5547;42.672;23.230;2023-07-20T11:08:42;92978.50;;;28.73;55.16
10988;BME280;5547;42.672;23.230;2023-07-20T11:11:49;92986.00;;;29.07;56.08
10988;BME280;5547;42.672;23.230;2023-07-20T11:14:57;93003.44;;;29.38;52.97
10988;BME280;5547;42.672;23.230;2023-07-20T11:18:18;92992.91;;;29.42;54.74
10988;BME280;5547;42.672;23.230;2023-07-20T11:21:19;93001.94;;;30.00;50.48
10988;BME280;5547;42.672;23.230;2023-07-20T11:24:20;92980.78;;;29.80;53.37
10988;BME280;5547;42.672;23.230;2023-07-20T11:27:20;92991.09;;;29.94;49.40
10988;BME280;5547;42.672;23.230;2023-07-20T11:30:22;92952.97;;;29.76;52.10
10988;BME280;5547;42.672;23.230;2023-07-20T11:33:23;92980.75;;;29.51;50.74
10988;BME280;5547;42.672;23.230;2023-07-20T11:36:23;92986.06;;;29.78;50.47
10988;BME280;5547;42.672;23.230;2023-07-20T11:39:24;92947.13;;;29.29;52.40
10988;BME280;5547;42.672;23.230;2023-07-20T11:42:25;92957.34;;;29.29;53.67
10988;BME280;5547;42.672;23.230;2023-07-20T11:45:26;92967.13;;;29.66;53.09
10988;BME280;5547;42.672;23.230;2023-07-20T11:48:27;92948.63;;;29.80;50.29
10988;BME280;5547;42.672;23.230;2023-07-20T11:51:29;92977.66;;;29.54;46.51
10988;BME280;5547;42.672;23.230;2023-07-20T11:54:30;92959.94;;;29.77;45.36
10988;BME280;5547;42.672;23.230;2023-07-20T11:57:30;92950.34;;;29.20;42.23
10988;BME280;5547;42.672;23.230;2023-07-20T12:00:34;92931.16;;;29.41;42.91
10988;BME280;5547;42.672;23.230;2023-07-20T12:03:35;92933.47;;;29.58;43.39
10988;BME280;5547;42.672;23.230;2023-07-20T12:06:35;92959.47;;;29.86;41.90
10988;BME280;5547;42.672;23.230;2023-07-20T12:09:36;92954.50;;;29.84;43.74
10988;BME280;5547;42.672;23.230;2023-07-20T12:12:44;92951.88;;;30.00;41.54
10988;BME280;5547;42.672;23.230;2023-07-20T12:15:44;92954.34;;;30.19;40.97
10988;BME280;5547;42.672;23.230;2023-07-20T12:18:45;92938.22;;;30.15;42.00
10988;BME280;5547;42.672;23.230;2023-07-20T12:21:45;92937.22;;;29.97;40.76
10988;BME280;5547;42.672;23.230;2023-07-20T12:24:46;92942.97;;;30.14;40.05
10988;BME280;5547;42.672;23.230;2023-07-20T12:27:48;92952.88;;;30.62;39.57
10988;BME280;5547;42.672;23.230;2023-07-20T12:30:48;92956.00;;;30.66;38.41
10988;BME280;5547;42.672;23.230;2023-07-20T12:33:57;92917.06;;;30.23;37.91
10988;BME280;5547;42.672;23.230;2023-07-20T12:36:58;92927.19;;;30.00;36.35
10988;BME280;5547;42.672;23.230;2023-07-20T12:39:59;92914.81;;;30.50;36.88
10988;BME280;5547;42.672;23.230;2023-07-20T12:42:59;92937.63;;;30.38;36.71
10988;BME280;5547;42.672;23.230;2023-07-20T12:46:00;92922.16;;;30.19;36.03
10988;BME280;5547;42.672;23.230;2023-07-20T12:49:00;92896.94;;;29.84;38.12
10988;BME280;5547;42.672;23.230;2023-07-20T12:52:00;92930.75;;;30.15;36.54
10988;BME280;5547;42.672;23.230;2023-07-20T12:55:01;92932.84;;;30.30;38.27
10988;BME280;5547;42.672;23.230;2023-07-20T12:58:02;92933.94;;;30.27;39.23
10988;BME280;5547;42.672;23.230;2023-07-20T13:01:02;92893.22;;;30.10;37.62
10988;BME280;5547;42.672;23.230;2023-07-20T13:04:02;92895.31;;;30.25;38.57
10988;BME280;5547;42.672;23.230;2023-07-20T13:07:03;92902.19;;;30.55;39.75
10988;BME280;5547;42.672;23.230;2023-07-20T13:10:05;92904.50;;;30.43;39.26
10988;BME280;5547;42.672;23.230;2023-07-20T13:13:06;92867.41;;;30.06;40.43
10988;BME280;5547;42.672;23.230;2023-07-20T13:16:06;92919.84;;;30.31;41.24
10988;BME280;5547;42.672;23.230;2023-07-20T13:19:07;92910.44;;;30.19;42.04
10988;BME280;5547;42.672;23.230;2023-07-20T13:22:07;92891.69;;;30.30;43.24
10988;BME280;5547;42.672;23.230;2023-07-20T13:25:08;92899.28;;;30.61;41.20
10988;BME280;5547;42.672;23.230;2023-07-20T13:28:08;92913.59;;;30.23;42.00
10988;BME280;5547;42.672;23.230;2023-07-20T13:31:08;92902.84;;;29.96;41.40
10988;BME280;5547;42.672;23.230;2023-07-20T13:34:11;92906.28;;;29.89;42.60
10988;BME280;5547;42.672;23.230;2023-07-20T13:37:12;92905.88;;;30.21;40.72
10988;BME280;5547;42.672;23.230;2023-07-20T13:40:12;92873.81;;;30.08;42.57
10988;BME280;5547;42.672;23.230;2023-07-20T13:43:13;92894.81;;;29.98;41.56
10988;BME280;5547;42.672;23.230;2023-07-20T13:46:13;92900.94;;;29.54;41.78
10988;BME280;5547;42.672;23.230;2023-07-20T13:49:14;92885.03;;;29.82;42.22
10988;BME280;5547;42.672;23.230;2023-07-20T13:52:15;92898.06;;;29.60;44.34
10988;BME280;5547;42.672;23.230;2023-07-20T13:55:15;92901.28;;;29.51;45.88
10988;BME280;5547;42.672;23.230;2023-07-20T13:58:16;92902.06;;;29.30;46.08
10988;BME280;5547;42.672;23.230;2023-07-20T14:01:16;92904.16;;;29.03;44.95
10988;BME280;5547;42.672;23.230;2023-07-20T14:04:17;92897.16;;;28.95;45.24
10988;BME280;5547;42.672;23.230;2023-07-20T14:07:18;92889.19;;;28.83;45.43
10988;BME280;5547;42.672;23.230;2023-07-20T14:10:19;92895.69;;;28.94;42.97
10988;BME280;5547;42.672;23.230;2023-07-20T14:13:20;92903.78;;;29.20;41.98
10988;BME280;5547;42.672;23.230;2023-07-20T14:16:21;92823.78;;;29.14;40.57
10988;BME280;5547;42.672;23.230;2023-07-20T14:19:21;92914.72;;;30.27;42.15
10988;BME280;5547;42.672;23.230;2023-07-20T14:22:22;92913.00;;;30.61;40.40
10988;BME280;5547;42.672;23.230;2023-07-20T14:25:23;92861.41;;;29.71;37.68
10988;BME280;5547;42.672;23.230;2023-07-20T14:28:24;92860.38;;;29.82;39.28
10988;BME280;5547;42.672;23.230;2023-07-20T14:31:25;92896.94;;;30.21;41.59
10988;BME280;5547;42.672;23.230;2023-07-20T14:34:26;92912.19;;;30.96;39.99
10988;BME280;5547;42.672;23.230;2023-07-20T14:37:26;92890.41;;;30.31;39.33
10988;BME280;5547;42.672;23.230;2023-07-20T14:40:27;92829.44;;;29.73;40.00
10988;BME280;5547;42.672;23.230;2023-07-20T14:43:27;92894.97;;;30.29;42.02
10988;BME280;5547;42.672;23.230;2023-07-20T14:46:28;92895.72;;;29.93;43.45
10988;BME280;5547;42.672;23.230;2023-07-20T14:49:28;92903.13;;;30.21;43.41
10988;BME280;5547;42.672;23.230;2023-07-20T14:52:28;92907.44;;;30.01;45.00
10988;BME280;5547;42.672;23.230;2023-07-20T14:55:29;92904.31;;;29.97;46.19
10988;BME280;5547;42.672;23.230;2023-07-20T14:58:29;92888.97;;;29.16;46.63
10988;BME280;5547;42.672;23.230;2023-07-20T15:01:30;92908.91;;;29.03;48.99
10988;BME280;5547;42.672;23.230;2023-07-20T15:04:30;92913.75;;;29.10;48.85
10988;BME280;5547;42.672;23.230;2023-07-20T15:07:31;92904.16;;;28.61;49.22
10988;BME280;5547;42.672;23.230;2023-07-20T15:10:31;92901.31;;;28.54;49.53
10988;BME280;5547;42.672;23.230;2023-07-20T15:13:32;92893.75;;;28.46;49.11
10988;BME280;5547;42.672;23.230;2023-07-20T15:16:33;92903.25;;;28.32;49.64
10988;BME280;5547;42.672;23.230;2023-07-20T15:19:35;92893.75;;;28.12;50.66
10988;BME280;5547;42.672;23.230;2023-07-20T15:22:36;92900.88;;;28.15;51.46
10988;BME280;5547;42.672;23.230;2023-07-20T15:25:36;92902.03;;;28.06;53.93
10988;BME280;5547;42.672;23.230;2023-07-20T15:28:37;92908.25;;;28.07;54.22
10988;BME280;5547;42.672;23.230;2023-07-20T15:31:38;92911.41;;;27.98;53.97
10988;BME280;5547;42.672;23.230;2023-07-20T15:34:38;92901.84;;;27.91;54.26
10988;BME280;5547;42.672;23.230;2023-07-20T15:37:39;92886.81;;;27.71;56.39
10988;BME280;5547;42.672;23.230;2023-07-20T15:40:43;92923.47;;;27.62;55.49
10988;BME280;5547;42.672;23.230;2023-07-20T15:43:43;92923.78;;;27.72;54.99
10988;BME280;5547;42.672;23.230;2023-07-20T15:46:46;92909.19;;;27.43;55.16
10988;BME280;5547;42.672;23.230;2023-07-20T15:49:47;92912.09;;;27.45;55.25
10988;BME280;5547;42.672;23.230;2023-07-20T15:52:48;92890.72;;;27.17;55.03
10988;BME280;5547;42.672;23.230;2023-07-20T15:55:53;92925.88;;;27.39;55.04
10988;BME280;5547;42.672;23.230;2023-07-20T15:58:54;92925.22;;;27.20;54.61
10988;BME280;5547;42.672;23.230;2023-07-20T16:01:55;92934.34;;;27.36;55.83
10988;BME280;5547;42.672;23.230;2023-07-20T16:04:55;92859.31;;;26.97;55.17